sensor_id;sensor_type;location;lat;lon;timestamp;temperature;humidity
736;DHT22;352;48.626;9.238;2022-08-01T00:06:44;21.90;91.10
736;DHT22;352;48.626;9.238;2022-08-01T00:23:54;21.80;91.20
736;DHT22;352;48.626;9.238;2022-08-01T00:41:04;21.50;91.40
736;DHT22;352;48.626;9.238;2022-08-01T00:58:16;21.30;91.80
736;DHT22;352;48.626;9.238;2022-08-01T01:05:45;21.30;91.90
736;DHT22;352;48.626;9.238;2022-08-01T01:08:19;21.30;92.00
736;DHT22;352;48.626;9.238;2022-08-01T01:10:52;21.20;92.20
736;DHT22;352;48.626;9.238;2022-08-01T01:13:25;21.20;92.40
736;DHT22;352;48.626;9.238;2022-08-01T01:15:58;21.20;92.60
736;DHT22;352;48.626;9.238;2022-08-01T01:18:32;21.10;92.70
736;DHT22;352;48.626;9.238;2022-08-01T01:21:05;21.10;92.90
736;DHT22;352;48.626;9.238;2022-08-01T01:23:46;21.10;93.00
736;DHT22;352;48.626;9.238;2022-08-01T01:26:36;21.00;93.20
736;DHT22;352;48.626;9.238;2022-08-01T01:29:15;20.90;93.40
736;DHT22;352;48.626;9.238;2022-08-01T01:31:51;20.90;93.70
736;DHT22;352;48.626;9.238;2022-08-01T01:34:22;20.90;93.80
736;DHT22;352;48.626;9.238;2022-08-01T01:36:52;20.80;93.90
736;DHT22;352;48.626;9.238;2022-08-01T01:39:21;20.70;93.90
736;DHT22;352;48.626;9.238;2022-08-01T01:41:49;20.70;94.10
736;DHT22;352;48.626;9.238;2022-08-01T01:44:18;20.70;94.10
736;DHT22;352;48.626;9.238;2022-08-01T01:46:46;20.70;94.30
736;DHT22;352;48.626;9.238;2022-08-01T01:49:14;20.60;94.40
736;DHT22;352;48.626;9.238;2022-08-01T01:51:42;20.50;94.60
736;DHT22;352;48.626;9.238;2022-08-01T01:56:39;20.60;95.00
736;DHT22;352;48.626;9.238;2022-08-01T01:59:15;20.50;95.00
736;DHT22;352;48.626;9.238;2022-08-01T02:01:45;20.50;95.20
736;DHT22;352;48.626;9.238;2022-08-01T02:04:13;20.40;95.20
736;DHT22;352;48.626;9.238;2022-08-01T02:09:08;20.30;95.60
736;DHT22;352;48.626;9.238;2022-08-01T02:11:37;20.30;95.70
736;DHT22;352;48.626;9.238;2022-08-01T02:14:06;20.30;95.80
736;DHT22;352;48.626;9.238;2022-08-01T02:16:35;20.30;95.90
736;DHT22;352;48.626;9.238;2022-08-01T02:19:04;20.30;96.00
736;DHT22;352;48.626;9.238;2022-08-01T02:21:35;20.20;96.10
736;DHT22;352;48.626;9.238;2022-08-01T02:24:09;20.20;96.10
736;DHT22;352;48.626;9.238;2022-08-01T02:26:39;20.20;96.40
736;DHT22;352;48.626;9.238;2022-08-01T02:29:10;20.20;96.50
736;DHT22;352;48.626;9.238;2022-08-01T02:31:41;20.10;96.70
736;DHT22;352;48.626;9.238;2022-08-01T02:34:14;20.00;96.70
736;DHT22;352;48.626;9.238;2022-08-01T02:36:44;20.00;96.80
736;DHT22;352;48.626;9.238;2022-08-01T02:39:14;20.00;96.90
736;DHT22;352;48.626;9.238;2022-08-01T02:41:45;20.00;97.00
736;DHT22;352;48.626;9.238;2022-08-01T02:44:18;19.90;97.10
736;DHT22;352;48.626;9.238;2022-08-01T02:46:51;19.90;97.20
736;DHT22;352;48.626;9.238;2022-08-01T02:49:20;19.90;97.20
736;DHT22;352;48.626;9.238;2022-08-01T02:54:17;19.80;97.30
736;DHT22;352;48.626;9.238;2022-08-01T02:56:46;19.80;97.40
736;DHT22;352;48.626;9.238;2022-08-01T02:59:18;19.80;97.50
736;DHT22;352;48.626;9.238;2022-08-01T03:01:46;19.80;97.60
736;DHT22;352;48.626;9.238;2022-08-01T03:04:14;19.70;97.60
736;DHT22;352;48.626;9.238;2022-08-01T03:06:44;19.70;97.70
736;DHT22;352;48.626;9.238;2022-08-01T03:09:13;19.70;97.80
736;DHT22;352;48.626;9.238;2022-08-01T03:11:42;19.70;97.90
736;DHT22;352;48.626;9.238;2022-08-01T03:14:10;19.60;97.90
736;DHT22;352;48.626;9.238;2022-08-01T03:16:39;19.70;98.00
736;DHT22;352;48.626;9.238;2022-08-01T03:19:09;19.60;98.10
736;DHT22;352;48.626;9.238;2022-08-01T03:24:07;19.40;99.90
736;DHT22;352;48.626;9.238;2022-08-01T03:26:36;19.60;98.50
736;DHT22;352;48.626;9.238;2022-08-01T03:29:06;19.60;98.60
736;DHT22;352;48.626;9.238;2022-08-01T03:31:34;19.30;98.50
736;DHT22;352;48.626;9.238;2022-08-01T03:36:30;19.50;98.70
736;DHT22;352;48.626;9.238;2022-08-01T03:39:01;19.50;98.80
736;DHT22;352;48.626;9.238;2022-08-01T03:41:33;19.40;99.00
736;DHT22;352;48.626;9.238;2022-08-01T03:44:06;19.40;99.00
736;DHT22;352;48.626;9.238;2022-08-01T03:46:39;19.40;99.10
736;DHT22;352;48.626;9.238;2022-08-01T03:49:11;19.40;99.10
736;DHT22;352;48.626;9.238;2022-08-01T03:54:08;19.30;99.20
736;DHT22;352;48.626;9.238;2022-08-01T03:56:38;19.30;99.30
736;DHT22;352;48.626;9.238;2022-08-01T03:59:09;19.30;99.30
736;DHT22;352;48.626;9.238;2022-08-01T04:01:36;19.30;99.40
736;DHT22;352;48.626;9.238;2022-08-01T04:11:26;19.30;99.70
736;DHT22;352;48.626;9.238;2022-08-01T04:13:55;19.30;99.70
736;DHT22;352;48.626;9.238;2022-08-01T04:21:20;19.60;99.90
736;DHT22;352;48.626;9.238;2022-08-01T04:23:49;19.40;99.90
736;DHT22;352;48.626;9.238;2022-08-01T04:26:18;19.40;99.90
736;DHT22;352;48.626;9.238;2022-08-01T04:28:47;19.40;99.90
736;DHT22;352;48.626;9.238;2022-08-01T04:31:17;19.30;99.90
736;DHT22;352;48.626;9.238;2022-08-01T04:33:48;19.20;99.90
736;DHT22;352;48.626;9.238;2022-08-01T04:36:17;19.30;99.90
736;DHT22;352;48.626;9.238;2022-08-01T04:38:46;19.30;99.90
736;DHT22;352;48.626;9.238;2022-08-01T04:41:16;19.30;99.90
736;DHT22;352;48.626;9.238;2022-08-01T04:48:40;19.10;99.90
736;DHT22;352;48.626;9.238;2022-08-01T04:51:12;19.30;99.90
736;DHT22;352;48.626;9.238;2022-08-01T04:53:41;19.70;99.90
736;DHT22;352;48.626;9.238;2022-08-01T05:03:33;19.60;99.90
736;DHT22;352;48.626;9.238;2022-08-01T05:06:01;19.30;99.90
736;DHT22;352;48.626;9.238;2022-08-01T05:23:14;21.50;99.90
736;DHT22;352;48.626;9.238;2022-08-01T05:37:56;24.90;99.90
736;DHT22;352;48.626;9.238;2022-08-01T05:40:24;24.90;93.60
736;DHT22;352;48.626;9.238;2022-08-01T05:45:18;24.40;99.90
736;DHT22;352;48.626;9.238;2022-08-01T05:55:07;25.90;99.90
736;DHT22;352;48.626;9.238;2022-08-01T05:57:36;26.90;99.90
736;DHT22;352;48.626;9.238;2022-08-01T06:02:30;28.40;96.40
736;DHT22;352;48.626;9.238;2022-08-01T06:04:56;28.90;98.00
736;DHT22;352;48.626;9.238;2022-08-01T06:14:45;31.10;92.40
736;DHT22;352;48.626;9.238;2022-08-01T06:27:01;28.40;76.80
736;DHT22;352;48.626;9.238;2022-08-01T06:29:30;27.90;78.80
736;DHT22;352;48.626;9.238;2022-08-01T06:31:58;27.30;99.90
736;DHT22;352;48.626;9.238;2022-08-01T06:49:09;30.30;73.40
736;DHT22;352;48.626;9.238;2022-08-01T07:01:26;29.80;95.50
736;DHT22;352;48.626;9.238;2022-08-01T07:06:22;31.10;73.30
736;DHT22;352;48.626;9.238;2022-08-01T07:23:33;34.50;62.30
736;DHT22;352;48.626;9.238;2022-08-01T07:40:44;35.80;55.60
736;DHT22;352;48.626;9.238;2022-08-01T07:57:56;37.20;50.50
736;DHT22;352;48.626;9.238;2022-08-01T08:20:04;38.10;51.30
736;DHT22;352;48.626;9.238;2022-08-01T08:32:20;38.10;47.60
736;DHT22;352;48.626;9.238;2022-08-01T08:42:10;37.60;47.40
736;DHT22;352;48.626;9.238;2022-08-01T08:49:35;37.50;46.70
736;DHT22;352;48.626;9.238;2022-08-01T08:52:04;37.60;74.10
736;DHT22;352;48.626;9.238;2022-08-01T08:54:32;37.50;81.10
736;DHT22;352;48.626;9.238;2022-08-01T08:57:00;37.90;48.40
736;DHT22;352;48.626;9.238;2022-08-01T09:06:51;39.10;46.70
736;DHT22;352;48.626;9.238;2022-08-01T09:14:15;40.00;46.90
736;DHT22;352;48.626;9.238;2022-08-01T09:16:59;40.60;44.90
736;DHT22;352;48.626;9.238;2022-08-01T09:19:34;40.10;43.70
736;DHT22;352;48.626;9.238;2022-08-01T09:22:04;40.30;45.60
736;DHT22;352;48.626;9.238;2022-08-01T09:26:59;41.40;42.50
736;DHT22;352;48.626;9.238;2022-08-01T09:29:28;41.10;44.20
736;DHT22;352;48.626;9.238;2022-08-01T09:31:56;41.50;43.00
736;DHT22;352;48.626;9.238;2022-08-01T09:34:26;41.60;43.00
736;DHT22;352;48.626;9.238;2022-08-01T09:36:55;42.20;40.90
736;DHT22;352;48.626;9.238;2022-08-01T09:39:24;43.10;39.90
736;DHT22;352;48.626;9.238;2022-08-01T09:46:52;44.30;37.60
736;DHT22;352;48.626;9.238;2022-08-01T09:49:29;44.90;36.00
736;DHT22;352;48.626;9.238;2022-08-01T09:51:57;44.60;36.10
736;DHT22;352;48.626;9.238;2022-08-01T09:54:33;44.70;35.70
736;DHT22;352;48.626;9.238;2022-08-01T09:57:15;44.20;36.20
736;DHT22;352;48.626;9.238;2022-08-01T09:59:44;43.70;37.30
736;DHT22;352;48.626;9.238;2022-08-01T10:02:13;42.50;38.10
736;DHT22;352;48.626;9.238;2022-08-01T10:04:47;41.10;60.00
736;DHT22;352;48.626;9.238;2022-08-01T10:09:44;38.90;63.70
736;DHT22;352;48.626;9.238;2022-08-01T10:12:12;38.60;43.30
736;DHT22;352;48.626;9.238;2022-08-01T10:14:40;36.70;45.40
736;DHT22;352;48.626;9.238;2022-08-01T10:17:08;36.10;45.30
736;DHT22;352;48.626;9.238;2022-08-01T10:19:35;36.00;45.80
736;DHT22;352;48.626;9.238;2022-08-01T10:22:05;35.60;49.40
736;DHT22;352;48.626;9.238;2022-08-01T10:24:36;38.20;60.30
736;DHT22;352;48.626;9.238;2022-08-01T10:27:06;38.30;46.80
736;DHT22;352;48.626;9.238;2022-08-01T10:29:36;39.90;42.20
736;DHT22;352;48.626;9.238;2022-08-01T10:32:05;41.70;41.60
736;DHT22;352;48.626;9.238;2022-08-01T10:34:35;41.00;55.60
736;DHT22;352;48.626;9.238;2022-08-01T10:37:02;41.10;42.00
736;DHT22;352;48.626;9.238;2022-08-01T10:39:30;41.60;41.20
736;DHT22;352;48.626;9.238;2022-08-01T10:41:58;42.50;39.50
736;DHT22;352;48.626;9.238;2022-08-01T10:44:28;42.30;39.00
736;DHT22;352;48.626;9.238;2022-08-01T10:46:59;40.90;40.20
736;DHT22;352;48.626;9.238;2022-08-01T10:49:31;39.50;42.00
736;DHT22;352;48.626;9.238;2022-08-01T10:51:58;38.30;42.70
736;DHT22;352;48.626;9.238;2022-08-01T10:54:26;37.20;45.30
736;DHT22;352;48.626;9.238;2022-08-01T10:56:53;35.30;47.60
736;DHT22;352;48.626;9.238;2022-08-01T10:59:23;35.30;48.10
736;DHT22;352;48.626;9.238;2022-08-01T11:01:59;36.30;49.00
736;DHT22;352;48.626;9.238;2022-08-01T11:04:44;37.50;45.60
736;DHT22;352;48.626;9.238;2022-08-01T11:07:16;37.10;45.80
736;DHT22;352;48.626;9.238;2022-08-01T11:09:45;36.60;47.60
736;DHT22;352;48.626;9.238;2022-08-01T11:12:13;35.70;47.60
736;DHT22;352;48.626;9.238;2022-08-01T11:17:52;33.50;51.20
736;DHT22;352;48.626;9.238;2022-08-01T11:20:20;32.90;52.20
736;DHT22;352;48.626;9.238;2022-08-01T11:26:13;31.80;54.00
736;DHT22;352;48.626;9.238;2022-08-01T11:28:41;31.30;55.00
736;DHT22;352;48.626;9.238;2022-08-01T11:31:29;31.00;56.20
736;DHT22;352;48.626;9.238;2022-08-01T11:33:58;30.80;57.40
736;DHT22;352;48.626;9.238;2022-08-01T11:36:25;30.60;57.20
736;DHT22;352;48.626;9.238;2022-08-01T11:39:15;30.40;79.30
736;DHT22;352;48.626;9.238;2022-08-01T11:41:44;30.30;72.00
736;DHT22;352;48.626;9.238;2022-08-01T11:44:13;30.30;58.00
736;DHT22;352;48.626;9.238;2022-08-01T11:46:52;30.20;58.30
736;DHT22;352;48.626;9.238;2022-08-01T11:49:45;30.00;58.60
736;DHT22;352;48.626;9.238;2022-08-01T11:52:14;30.10;80.40
736;DHT22;352;48.626;9.238;2022-08-01T11:54:42;30.10;60.20
736;DHT22;352;48.626;9.238;2022-08-01T11:57:11;30.10;60.50
736;DHT22;352;48.626;9.238;2022-08-01T11:59:40;30.10;59.70
736;DHT22;352;48.626;9.238;2022-08-01T12:02:20;30.20;59.80
736;DHT22;352;48.626;9.238;2022-08-01T12:04:51;30.50;81.30
736;DHT22;352;48.626;9.238;2022-08-01T12:07:18;30.40;57.90
736;DHT22;352;48.626;9.238;2022-08-01T12:09:45;30.50;58.70
736;DHT22;352;48.626;9.238;2022-08-01T12:12:15;30.50;59.00
736;DHT22;352;48.626;9.238;2022-08-01T12:14:44;30.50;59.60
736;DHT22;352;48.626;9.238;2022-08-01T12:22:12;30.00;58.90
736;DHT22;352;48.626;9.238;2022-08-01T12:24:40;30.00;60.80
736;DHT22;352;48.626;9.238;2022-08-01T12:27:08;29.90;61.80
736;DHT22;352;48.626;9.238;2022-08-01T12:29:37;29.90;61.30
736;DHT22;352;48.626;9.238;2022-08-01T12:32:21;29.90;60.80
736;DHT22;352;48.626;9.238;2022-08-01T12:34:48;29.90;61.10
736;DHT22;352;48.626;9.238;2022-08-01T12:37:16;29.70;60.70
736;DHT22;352;48.626;9.238;2022-08-01T12:39:44;29.70;60.60
736;DHT22;352;48.626;9.238;2022-08-01T12:42:12;29.70;60.80
736;DHT22;352;48.626;9.238;2022-08-01T12:44:39;29.90;60.60
736;DHT22;352;48.626;9.238;2022-08-01T12:47:07;30.00;60.60
736;DHT22;352;48.626;9.238;2022-08-01T12:49:35;30.10;59.20
736;DHT22;352;48.626;9.238;2022-08-01T12:52:03;30.10;59.60
736;DHT22;352;48.626;9.238;2022-08-01T12:55:01;30.00;60.40
736;DHT22;352;48.626;9.238;2022-08-01T12:57:28;29.90;60.60
736;DHT22;352;48.626;9.238;2022-08-01T13:00:09;29.80;59.60
736;DHT22;352;48.626;9.238;2022-08-01T13:02:37;29.70;60.10
736;DHT22;352;48.626;9.238;2022-08-01T13:05:06;29.80;58.90
736;DHT22;352;48.626;9.238;2022-08-01T13:07:38;29.70;61.60
736;DHT22;352;48.626;9.238;2022-08-01T13:10:07;29.90;61.90
736;DHT22;352;48.626;9.238;2022-08-01T13:12:34;30.00;60.10
736;DHT22;352;48.626;9.238;2022-08-01T13:15:19;29.80;59.80
736;DHT22;352;48.626;9.238;2022-08-01T13:17:47;29.70;58.80
736;DHT22;352;48.626;9.238;2022-08-01T13:20:31;29.60;59.60
736;DHT22;352;48.626;9.238;2022-08-01T13:23:12;29.50;59.60
736;DHT22;352;48.626;9.238;2022-08-01T13:25:53;29.50;61.70
736;DHT22;352;48.626;9.238;2022-08-01T13:28:21;29.50;62.80
736;DHT22;352;48.626;9.238;2022-08-01T13:30:56;29.40;63.00
736;DHT22;352;48.626;9.238;2022-08-01T13:33:23;29.30;65.50
736;DHT22;352;48.626;9.238;2022-08-01T13:35:51;29.30;67.20
736;DHT22;352;48.626;9.238;2022-08-01T13:38:18;29.40;67.20
736;DHT22;352;48.626;9.238;2022-08-01T13:40:46;29.50;66.40
736;DHT22;352;48.626;9.238;2022-08-01T13:43:14;29.40;63.40
736;DHT22;352;48.626;9.238;2022-08-01T13:45:40;29.50;63.70
736;DHT22;352;48.626;9.238;2022-08-01T13:48:08;29.50;63.70
736;DHT22;352;48.626;9.238;2022-08-01T13:50:35;29.60;62.40
736;DHT22;352;48.626;9.238;2022-08-01T13:53:02;29.80;63.70
736;DHT22;352;48.626;9.238;2022-08-01T13:55:28;29.80;60.30
736;DHT22;352;48.626;9.238;2022-08-01T13:57:55;29.80;61.60
736;DHT22;352;48.626;9.238;2022-08-01T14:00:23;29.90;61.80
736;DHT22;352;48.626;9.238;2022-08-01T14:02:50;30.10;61.90
736;DHT22;352;48.626;9.238;2022-08-01T14:05:17;30.00;60.50
736;DHT22;352;48.626;9.238;2022-08-01T14:07:43;29.90;60.60
736;DHT22;352;48.626;9.238;2022-08-01T14:10:11;29.80;62.20
736;DHT22;352;48.626;9.238;2022-08-01T14:12:37;29.80;61.40
736;DHT22;352;48.626;9.238;2022-08-01T14:15:05;29.80;61.70
736;DHT22;352;48.626;9.238;2022-08-01T14:17:33;29.90;61.80
736;DHT22;352;48.626;9.238;2022-08-01T14:20:00;29.80;61.70
736;DHT22;352;48.626;9.238;2022-08-01T14:22:28;29.60;60.90
736;DHT22;352;48.626;9.238;2022-08-01T14:24:54;29.40;61.20
736;DHT22;352;48.626;9.238;2022-08-01T14:27:21;29.20;61.30
736;DHT22;352;48.626;9.238;2022-08-01T14:29:48;29.00;61.70
736;DHT22;352;48.626;9.238;2022-08-01T14:32:15;29.00;62.10
736;DHT22;352;48.626;9.238;2022-08-01T14:34:43;28.90;62.40
736;DHT22;352;48.626;9.238;2022-08-01T14:37:09;28.90;62.90
736;DHT22;352;48.626;9.238;2022-08-01T14:39:36;29.00;63.00
736;DHT22;352;48.626;9.238;2022-08-01T14:42:03;28.90;63.20
736;DHT22;352;48.626;9.238;2022-08-01T14:44:30;29.00;62.50
736;DHT22;352;48.626;9.238;2022-08-01T14:46:57;29.00;63.80
736;DHT22;352;48.626;9.238;2022-08-01T14:49:23;29.00;62.70
736;DHT22;352;48.626;9.238;2022-08-01T14:51:51;29.00;63.20
736;DHT22;352;48.626;9.238;2022-08-01T14:54:18;29.10;65.50
736;DHT22;352;48.626;9.238;2022-08-01T14:56:45;29.10;65.50
736;DHT22;352;48.626;9.238;2022-08-01T14:59:12;29.20;63.50
736;DHT22;352;48.626;9.238;2022-08-01T15:01:38;29.30;75.40
736;DHT22;352;48.626;9.238;2022-08-01T15:04:05;29.20;63.70
736;DHT22;352;48.626;9.238;2022-08-01T15:06:32;29.40;62.30
736;DHT22;352;48.626;9.238;2022-08-01T15:09:00;29.30;61.50
736;DHT22;352;48.626;9.238;2022-08-01T15:11:27;29.20;63.10
736;DHT22;352;48.626;9.238;2022-08-01T15:13:54;29.30;63.70
736;DHT22;352;48.626;9.238;2022-08-01T15:16:34;29.30;64.40
736;DHT22;352;48.626;9.238;2022-08-01T15:19:01;29.10;63.20
736;DHT22;352;48.626;9.238;2022-08-01T15:23:55;29.00;62.30
736;DHT22;352;48.626;9.238;2022-08-01T15:26:23;29.00;62.70
736;DHT22;352;48.626;9.238;2022-08-01T15:28:49;28.90;63.80
736;DHT22;352;48.626;9.238;2022-08-01T15:31:17;29.00;81.70
736;DHT22;352;48.626;9.238;2022-08-01T15:33:44;28.80;63.70
736;DHT22;352;48.626;9.238;2022-08-01T15:36:10;28.70;64.50
736;DHT22;352;48.626;9.238;2022-08-01T15:38:37;28.60;64.80
736;DHT22;352;48.626;9.238;2022-08-01T15:41:04;28.50;64.20
736;DHT22;352;48.626;9.238;2022-08-01T15:43:32;28.40;64.40
736;DHT22;352;48.626;9.238;2022-08-01T15:48:26;28.40;64.20
736;DHT22;352;48.626;9.238;2022-08-01T15:50:53;28.60;86.10
736;DHT22;352;48.626;9.238;2022-08-01T15:55:47;28.60;64.50
736;DHT22;352;48.626;9.238;2022-08-01T15:58:13;28.70;65.20
736;DHT22;352;48.626;9.238;2022-08-01T16:00:41;28.80;63.60
736;DHT22;352;48.626;9.238;2022-08-01T16:03:08;28.90;62.80
736;DHT22;352;48.626;9.238;2022-08-01T16:05:35;28.80;62.70
736;DHT22;352;48.626;9.238;2022-08-01T16:08:02;28.90;64.60
736;DHT22;352;48.626;9.238;2022-08-01T16:10:30;29.00;64.10
736;DHT22;352;48.626;9.238;2022-08-01T16:12:57;29.10;62.80
736;DHT22;352;48.626;9.238;2022-08-01T16:15:23;29.20;62.60
736;DHT22;352;48.626;9.238;2022-08-01T16:17:51;29.30;62.00
736;DHT22;352;48.626;9.238;2022-08-01T16:20:18;29.40;62.50
736;DHT22;352;48.626;9.238;2022-08-01T16:22:45;29.40;61.90
736;DHT22;352;48.626;9.238;2022-08-01T16:25:11;29.30;64.70
736;DHT22;352;48.626;9.238;2022-08-01T16:27:39;29.10;66.00
736;DHT22;352;48.626;9.238;2022-08-01T16:30:06;28.90;66.10
736;DHT22;352;48.626;9.238;2022-08-01T16:32:33;28.70;68.10
736;DHT22;352;48.626;9.238;2022-08-01T16:35:01;28.30;70.80
736;DHT22;352;48.626;9.238;2022-08-01T16:37:28;28.10;71.70
736;DHT22;352;48.626;9.238;2022-08-01T16:39:54;28.00;72.50
736;DHT22;352;48.626;9.238;2022-08-01T16:42:21;27.90;73.80
736;DHT22;352;48.626;9.238;2022-08-01T16:44:48;27.70;73.40
736;DHT22;352;48.626;9.238;2022-08-01T16:47:15;27.60;73.50
736;DHT22;352;48.626;9.238;2022-08-01T16:49:41;27.60;73.50
736;DHT22;352;48.626;9.238;2022-08-01T16:52:10;27.50;73.20
736;DHT22;352;48.626;9.238;2022-08-01T16:54:37;27.50;74.30
736;DHT22;352;48.626;9.238;2022-08-01T16:57:04;27.30;74.80
736;DHT22;352;48.626;9.238;2022-08-01T17:04:25;26.70;86.00
736;DHT22;352;48.626;9.238;2022-08-01T17:06:51;27.00;93.60
736;DHT22;352;48.626;9.238;2022-08-01T17:09:20;26.60;90.80
736;DHT22;352;48.626;9.238;2022-08-01T17:16:42;26.50;93.10
736;DHT22;352;48.626;9.238;2022-08-01T17:19:08;26.70;91.20
736;DHT22;352;48.626;9.238;2022-08-01T17:21:35;26.70;85.70
736;DHT22;352;48.626;9.238;2022-08-01T17:24:02;26.50;93.10
736;DHT22;352;48.626;9.238;2022-08-01T17:26:31;25.90;85.20
736;DHT22;352;48.626;9.238;2022-08-01T17:33:52;25.60;93.50
736;DHT22;352;48.626;9.238;2022-08-01T17:43:42;25.80;77.70
736;DHT22;352;48.626;9.238;2022-08-01T17:51:03;25.60;93.20
736;DHT22;352;48.626;9.238;2022-08-01T17:58:27;25.70;79.60
736;DHT22;352;48.626;9.238;2022-08-01T18:00:55;25.80;96.50
736;DHT22;352;48.626;9.238;2022-08-01T18:05:49;25.30;94.70
736;DHT22;352;48.626;9.238;2022-08-01T18:13:11;25.60;93.60
736;DHT22;352;48.626;9.238;2022-08-01T18:15:37;25.20;97.00
736;DHT22;352;48.626;9.238;2022-08-01T18:18:05;25.30;81.30
736;DHT22;352;48.626;9.238;2022-08-01T18:35:17;25.10;82.40
736;DHT22;352;48.626;9.238;2022-08-01T18:45:06;25.00;98.50
736;DHT22;352;48.626;9.238;2022-08-01T18:52:29;24.90;92.90
736;DHT22;352;48.626;9.238;2022-08-01T18:54:56;25.00;99.90
736;DHT22;352;48.626;9.238;2022-08-01T18:59:50;24.50;99.90
736;DHT22;352;48.626;9.238;2022-08-01T19:02:18;24.60;99.90
736;DHT22;352;48.626;9.238;2022-08-01T19:07:12;24.20;99.90
736;DHT22;352;48.626;9.238;2022-08-01T19:09:40;24.40;98.80
736;DHT22;352;48.626;9.238;2022-08-01T19:12:07;24.50;99.90
736;DHT22;352;48.626;9.238;2022-08-01T19:21:55;24.30;99.90
736;DHT22;352;48.626;9.238;2022-08-01T19:26:53;24.40;99.90
736;DHT22;352;48.626;9.238;2022-08-01T19:29:22;24.30;99.90
736;DHT22;352;48.626;9.238;2022-08-01T19:31:50;24.60;99.90
736;DHT22;352;48.626;9.238;2022-08-01T19:34:18;24.50;99.90
736;DHT22;352;48.626;9.238;2022-08-01T19:36:47;24.20;99.90
736;DHT22;352;48.626;9.238;2022-08-01T19:39:15;24.10;99.90
736;DHT22;352;48.626;9.238;2022-08-01T19:41:44;24.00;99.90
736;DHT22;352;48.626;9.238;2022-08-01T19:44:15;23.80;99.90
736;DHT22;352;48.626;9.238;2022-08-01T19:46:42;23.70;99.90
736;DHT22;352;48.626;9.238;2022-08-01T19:49:11;23.50;99.90
736;DHT22;352;48.626;9.238;2022-08-01T19:51:45;23.50;99.90
736;DHT22;352;48.626;9.238;2022-08-01T19:54:15;23.00;99.90
736;DHT22;352;48.626;9.238;2022-08-01T19:56:43;22.60;99.90
736;DHT22;352;48.626;9.238;2022-08-01T19:59:16;22.60;99.90
736;DHT22;352;48.626;9.238;2022-08-01T20:16:29;21.10;99.90
736;DHT22;352;48.626;9.238;2022-08-01T20:21:25;21.10;99.90
736;DHT22;352;48.626;9.238;2022-08-01T20:23:54;21.00;99.90
736;DHT22;352;48.626;9.238;2022-08-01T20:28:51;21.10;99.90
736;DHT22;352;48.626;9.238;2022-08-01T20:31:20;21.10;99.90
736;DHT22;352;48.626;9.238;2022-08-01T20:33:49;21.00;99.90
736;DHT22;352;48.626;9.238;2022-08-01T20:41:11;20.90;99.90
736;DHT22;352;48.626;9.238;2022-08-01T20:46:05;21.00;99.90
736;DHT22;352;48.626;9.238;2022-08-01T20:51:01;21.00;99.90
736;DHT22;352;48.626;9.238;2022-08-01T20:53:41;21.00;99.90
736;DHT22;352;48.626;9.238;2022-08-01T20:56:21;21.00;99.90
736;DHT22;352;48.626;9.238;2022-08-01T20:58:59;20.80;99.90
736;DHT22;352;48.626;9.238;2022-08-01T21:01:31;20.80;99.90
736;DHT22;352;48.626;9.238;2022-08-01T21:04:08;20.80;99.90
736;DHT22;352;48.626;9.238;2022-08-01T21:06:41;20.60;99.90
736;DHT22;352;48.626;9.238;2022-08-01T21:11:39;20.70;99.90
736;DHT22;352;48.626;9.238;2022-08-01T21:14:09;20.60;99.90
736;DHT22;352;48.626;9.238;2022-08-01T21:16:40;20.60;99.90
736;DHT22;352;48.626;9.238;2022-08-01T21:19:12;20.50;99.90
736;DHT22;352;48.626;9.238;2022-08-01T21:21:44;20.50;99.90
736;DHT22;352;48.626;9.238;2022-08-01T21:24:15;20.60;99.90
736;DHT22;352;48.626;9.238;2022-08-01T21:26:43;20.40;99.90
736;DHT22;352;48.626;9.238;2022-08-01T21:29:11;20.40;99.90
736;DHT22;352;48.626;9.238;2022-08-01T21:31:39;20.40;99.90
736;DHT22;352;48.626;9.238;2022-08-01T21:36:34;20.40;99.90
736;DHT22;352;48.626;9.238;2022-08-01T21:39:04;20.40;99.90
736;DHT22;352;48.626;9.238;2022-08-01T21:43:59;20.60;99.90
736;DHT22;352;48.626;9.238;2022-08-01T21:46:28;20.50;99.90
736;DHT22;352;48.626;9.238;2022-08-01T21:48:56;20.20;99.90
736;DHT22;352;48.626;9.238;2022-08-01T21:51:31;20.30;99.90
736;DHT22;352;48.626;9.238;2022-08-01T21:54:08;20.30;99.90
736;DHT22;352;48.626;9.238;2022-08-01T21:56:46;20.20;99.90
736;DHT22;352;48.626;9.238;2022-08-01T21:59:25;20.30;99.90
736;DHT22;352;48.626;9.238;2022-08-01T22:01:58;20.30;99.90
736;DHT22;352;48.626;9.238;2022-08-01T22:04:33;20.30;99.90
736;DHT22;352;48.626;9.238;2022-08-01T22:07:05;20.40;99.90
736;DHT22;352;48.626;9.238;2022-08-01T22:09:44;20.40;99.90
736;DHT22;352;48.626;9.238;2022-08-01T22:14:47;20.30;99.90
736;DHT22;352;48.626;9.238;2022-08-01T22:19:47;20.30;99.90
736;DHT22;352;48.626;9.238;2022-08-01T22:22:15;20.30;99.90
736;DHT22;352;48.626;9.238;2022-08-01T22:24:48;20.30;99.90
736;DHT22;352;48.626;9.238;2022-08-01T22:29:51;20.40;99.90
736;DHT22;352;48.626;9.238;2022-08-01T22:32:27;20.50;99.90
736;DHT22;352;48.626;9.238;2022-08-01T22:34:54;20.50;99.90
736;DHT22;352;48.626;9.238;2022-08-01T22:39:52;20.50;99.90
736;DHT22;352;48.626;9.238;2022-08-01T22:42:25;20.50;99.90
736;DHT22;352;48.626;9.238;2022-08-01T22:45:03;20.50;99.90
736;DHT22;352;48.626;9.238;2022-08-01T22:47:47;20.60;99.90
736;DHT22;352;48.626;9.238;2022-08-01T22:50:18;20.60;99.90
736;DHT22;352;48.626;9.238;2022-08-01T22:52:53;20.50;99.90
736;DHT22;352;48.626;9.238;2022-08-01T22:55:25;20.50;99.90
736;DHT22;352;48.626;9.238;2022-08-01T22:57:57;20.60;99.90
736;DHT22;352;48.626;9.238;2022-08-01T23:00:27;20.60;99.90
736;DHT22;352;48.626;9.238;2022-08-01T23:02:58;20.60;99.90
736;DHT22;352;48.626;9.238;2022-08-01T23:05:29;20.50;99.90
736;DHT22;352;48.626;9.238;2022-08-01T23:08:02;20.50;99.90
736;DHT22;352;48.626;9.238;2022-08-01T23:17:08;20.50;99.90
